Time;durP1;ratioP1;P1;durP2;ratioP2;P2;SDS_P1;SDS_P2;PMS_P1;PMS_P2;Temp;Humidity;BMP_temperature;BMP_pressure;BME280_temperature;BME280_humidity;BME280_pressure;Samples;Min_cycle;Max_cycle;Signal;HPM_P1;HPM_P2
2023/11/18 06:33:49;;;;;;;21.60;8.07;;;1.60;99.90;;;;;;5558140;23;20259;-71
2023/11/18 06:36:16;;;;;;;27.33;9.10;;;1.80;99.90;;;;;;4958366;28;20198;-71
2023/11/18 06:38:43;;;;;;;24.87;9.47;;;1.70;99.90;;;;;;4953449;29;20170;-71
2023/11/18 06:41:11;;;;;;;30.97;9.33;;;1.70;99.90;;;;;;4953296;29;20179;-70
2023/11/18 06:46:33;;;;;;;24.40;9.20;;;1.70;99.90;;;;;;4953611;29;20201;-73
2023/11/18 06:49:03;;;;;;;28.70;9.57;;;1.80;99.90;;;;;;4952550;29;20186;-71
2023/11/18 06:51:31;;;;;;;28.10;10.33;;;1.80;99.90;;;;;;4953308;28;20278;-71
2023/11/18 06:53:57;;;;;;;23.37;9.13;;;1.80;99.90;;;;;;4948116;29;20995;-71
2023/11/18 06:56:24;;;;;;;33.40;10.07;;;1.80;99.90;;;;;;4952588;28;20608;-70
2023/11/18 06:58:50;;;;;;;28.63;10.27;;;1.80;99.90;;;;;;4952457;29;20183;-70
2023/11/18 07:01:16;;;;;;;27.70;9.37;;;1.80;99.90;;;;;;4952029;29;20189;-70
2023/11/18 07:03:48;;;;;;;27.57;10.50;;;1.80;99.90;;;;;;4951429;28;20252;-70
2023/11/18 07:06:21;;;;;;;34.67;15.43;;;1.70;99.90;;;;;;4951870;29;20190;-70
2023/11/18 07:08:51;;;;;;;28.37;12.17;;;1.80;99.90;;;;;;4951244;28;20187;-70
2023/11/18 07:11:17;;;;;;;30.80;10.80;;;1.80;99.90;;;;;;4951916;29;20195;-70
2023/11/18 07:13:44;;;;;;;36.37;13.83;;;1.80;99.90;;;;;;4938413;28;20206;-69
2023/11/18 07:16:09;;;;;;;45.63;17.80;;;1.70;99.90;;;;;;4955611;28;20501;-71
2023/11/18 07:18:36;;;;;;;27.17;9.37;;;1.70;99.90;;;;;;4952303;29;20175;-70
2023/11/18 07:21:06;;;;;;;37.27;10.97;;;1.70;99.90;;;;;;4952165;29;20182;-70
2023/11/18 07:23:32;;;;;;;25.37;9.00;;;1.70;99.90;;;;;;4951717;28;20202;-69
2023/11/18 07:25:58;;;;;;;31.27;9.53;;;1.70;99.90;;;;;;4952020;29;20310;-72
2023/11/18 07:28:24;;;;;;;51.23;10.60;;;1.70;99.90;;;;;;4959921;28;20711;-72
2023/11/18 07:30:49;;;;;;;29.03;9.03;;;1.70;99.90;;;;;;4952484;28;20194;-72
2023/11/18 07:33:16;;;;;;;33.43;9.60;;;1.80;99.90;;;;;;4950885;28;20237;-73
2023/11/18 07:35:43;;;;;;;32.77;9.40;;;1.80;99.90;;;;;;4952014;29;20321;-72
2023/11/18 07:38:10;;;;;;;51.50;24.50;;;1.80;99.90;;;;;;4952008;29;20185;-72
2023/11/18 07:40:37;;;;;;;36.03;12.40;;;1.70;99.90;;;;;;4935277;29;20189;-73
2023/11/18 07:43:03;;;;;;;33.23;11.90;;;1.80;99.90;;;;;;4951235;28;20202;-72
2023/11/18 07:45:37;;;;;;;31.10;11.53;;;1.80;99.90;;;;;;4952033;28;20200;-72
2023/11/18 07:48:08;;;;;;;28.60;9.60;;;1.80;99.90;;;;;;4942405;29;20185;-72
2023/11/18 07:50:40;;;;;;;24.67;9.97;;;1.80;99.90;;;;;;4942590;29;20242;-72
2023/11/18 07:53:06;;;;;;;30.00;11.60;;;1.90;99.90;;;;;;4951160;28;20218;-73
2023/11/18 07:55:34;;;;;;;20.17;8.57;;;1.80;99.90;;;;;;4951688;28;20210;-72
2023/11/18 07:58:01;;;;;;;26.60;11.03;;;1.80;99.90;;;;;;4951715;28;20591;-72
2023/11/18 08:00:30;;;;;;;35.20;10.47;;;1.80;99.90;;;;;;4934485;29;20182;-71
2023/11/18 08:02:56;;;;;;;23.47;8.47;;;1.90;99.90;;;;;;4951113;29;20233;-72
2023/11/18 08:05:22;;;;;;;25.60;9.53;;;1.90;99.90;;;;;;4951701;29;20189;-72
2023/11/18 08:07:49;;;;;;;23.67;9.70;;;1.80;99.90;;;;;;4951756;29;20268;-71
2023/11/18 08:10:18;;;;;;;24.17;8.90;;;1.80;99.90;;;;;;4951218;29;20851;-73
2023/11/18 08:12:45;;;;;;;27.17;10.00;;;1.90;99.90;;;;;;4950417;29;20233;-72
2023/11/18 08:15:10;;;;;;;26.23;10.53;;;1.90;99.90;;;;;;4951276;29;20519;-72
2023/11/18 08:17:36;;;;;;;23.23;9.57;;;2.00;99.90;;;;;;4951432;29;20178;-73
2023/11/18 08:20:13;;;;;;;29.13;11.73;;;2.00;99.90;;;;;;4952092;28;20272;-72
2023/11/18 08:22:45;;;;;;;20.00;8.20;;;2.10;99.90;;;;;;4955025;28;20208;-73
2023/11/18 08:25:12;;;;;;;24.73;7.50;;;2.10;99.90;;;;;;4938153;29;20190;-73
2023/11/18 08:27:39;;;;;;;25.53;9.00;;;2.10;99.90;;;;;;4938486;29;20672;-73
2023/11/18 08:30:11;;;;;;;27.10;10.00;;;2.00;99.90;;;;;;4955462;29;20718;-72
2023/11/18 08:32:40;;;;;;;27.00;10.13;;;2.10;99.90;;;;;;4946908;29;20206;-72
2023/11/18 08:35:09;;;;;;;25.77;8.50;;;2.20;99.90;;;;;;4955164;28;20222;-71
2023/11/18 08:37:39;;;;;;;22.53;8.60;;;2.10;99.90;;;;;;4947443;28;20234;-73
2023/11/18 08:40:14;;;;;;;26.00;8.97;;;2.10;99.90;;;;;;4955039;29;20559;-73
2023/11/18 08:42:49;;;;;;;28.93;9.50;;;2.10;99.90;;;;;;4954688;29;20174;-72
2023/11/18 08:45:32;;;;;;;35.60;14.40;;;2.10;99.90;;;;;;4962840;28;20591;-72
2023/11/18 08:48:01;;;;;;;22.83;8.67;;;2.10;99.90;;;;;;4955318;28;20236;-72
2023/11/18 08:50:28;;;;;;;30.07;9.97;;;2.20;99.90;;;;;;4954825;28;20222;-71
2023/11/18 08:52:58;;;;;;;25.27;9.83;;;2.30;99.90;;;;;;4953973;28;20224;-72
2023/11/18 08:55:38;;;;;;;40.73;12.30;;;2.30;99.90;;;;;;4951480;29;20934;-72
2023/11/18 08:58:15;;;;;;;27.83;11.63;;;2.30;99.90;;;;;;4948727;29;20197;-72
2023/11/18 09:03:34;;;;;;;32.33;12.67;;;2.40;99.90;;;;;;4948016;29;20221;-72
2023/11/18 09:06:17;;;;;;;26.73;10.33;;;2.40;99.90;;;;;;4954890;29;20171;-71
2023/11/18 09:08:46;;;;;;;29.63;10.80;;;2.50;99.90;;;;;;4947139;29;20739;-72
2023/11/18 09:11:17;;;;;;;28.83;10.50;;;2.50;99.90;;;;;;4954626;29;20191;-72
2023/11/18 09:13:53;;;;;;;30.07;10.13;;;2.50;99.90;;;;;;4953593;28;20214;-72
2023/11/18 09:16:22;;;;;;;33.10;11.13;;;2.60;99.90;;;;;;4954571;29;20190;-70
2023/11/18 09:18:48;;;;;;;34.23;11.53;;;2.60;99.90;;;;;;4954940;29;20179;-73
2023/11/18 09:21:14;;;;;;;39.13;14.00;;;2.60;99.90;;;;;;4954541;29;20182;-74
2023/11/18 09:23:42;;;;;;;34.97;13.23;;;2.60;99.90;;;;;;4953954;28;20206;-73
2023/11/18 09:26:08;;;;;;;35.60;11.97;;;2.60;99.90;;;;;;4954552;28;20182;-73
2023/11/18 09:28:35;;;;;;;33.20;10.93;;;2.60;99.90;;;;;;4954126;29;20233;-72
2023/11/18 09:31:04;;;;;;;33.10;11.37;;;2.60;99.90;;;;;;4936635;29;20217;-72
2023/11/18 09:33:34;;;;;;;35.60;12.00;;;2.60;99.90;;;;;;4960972;28;20361;-71
2023/11/18 09:36:08;;;;;;;37.10;12.10;;;2.70;99.90;;;;;;4953194;29;20186;-71
2023/11/18 09:38:35;;;;;;;35.30;11.47;;;2.70;99.90;;;;;;4953505;29;20605;-72
2023/11/18 09:41:06;;;;;;;39.00;12.10;;;2.70;99.90;;;;;;4954281;29;20195;-72
2023/11/18 09:43:36;;;;;;;34.43;11.67;;;2.70;99.90;;;;;;4953369;28;20197;-72
2023/11/18 09:46:12;;;;;;;31.87;12.80;;;2.80;99.90;;;;;;4954291;29;20197;-72
2023/11/18 09:48:59;;;;;;;35.27;11.87;;;2.80;99.90;;;;;;4954854;29;20186;-73
2023/11/18 09:51:30;;;;;;;32.77;12.00;;;2.80;99.90;;;;;;4953936;29;20193;-71
2023/11/18 09:54:03;;;;;;;33.07;10.83;;;2.90;99.90;;;;;;4953340;29;20601;-72
2023/11/18 09:56:45;;;;;;;36.20;11.67;;;2.90;99.90;;;;;;4953944;29;20183;-73
2023/11/18 09:59:44;;;;;;;40.37;11.90;;;2.90;99.90;;;;;;4953825;29;20178;-72
2023/11/18 10:02:10;;;;;;;33.33;13.13;;;2.90;99.90;;;;;;4911398;29;20218;-72
2023/11/18 10:04:39;;;;;;;35.00;12.47;;;2.90;99.90;;;;;;4945503;29;20206;-72
2023/11/18 10:07:11;;;;;;;33.33;12.83;;;2.90;99.90;;;;;;4953782;29;20193;-70
2023/11/18 10:09:38;;;;;;;42.57;12.07;;;2.90;99.90;;;;;;4953838;29;20171;-73
2023/11/18 10:12:08;;;;;;;32.60;11.60;;;2.90;99.90;;;;;;4953833;29;20214;-72
2023/11/18 10:14:39;;;;;;;30.73;11.80;;;2.90;99.90;;;;;;4952404;28;20203;-71
2023/11/18 10:17:09;;;;;;;33.03;11.33;;;2.90;99.90;;;;;;4954174;28;20673;-73
2023/11/18 10:19:59;;;;;;;34.13;11.33;;;3.00;99.90;;;;;;4954158;29;20174;-73
2023/11/18 10:22:29;;;;;;;31.93;12.27;;;3.00;99.90;;;;;;4953331;28;20296;-73
2023/11/18 10:24:55;;;;;;;36.50;12.27;;;3.00;99.90;;;;;;4954074;29;20634;-73
2023/11/18 10:27:25;;;;;;;31.47;10.90;;;2.90;99.90;;;;;;4954324;28;20736;-73
2023/11/18 10:29:58;;;;;;;32.50;11.50;;;3.00;99.90;;;;;;4954205;28;20309;-73
2023/11/18 10:32:27;;;;;;;45.53;15.57;;;3.00;99.90;;;;;;4949926;28;20277;-71
2023/11/18 10:34:57;;;;;;;44.87;13.33;;;3.00;99.90;;;;;;4951890;28;20222;-73
2023/11/18 10:37:23;;;;;;;33.03;12.00;;;3.10;99.90;;;;;;4950194;29;20229;-73
2023/11/18 10:39:51;;;;;;;36.93;11.73;;;3.10;99.90;;;;;;4958704;28;20248;-72
2023/11/18 10:42:20;;;;;;;33.53;11.30;;;3.10;99.90;;;;;;4954434;28;20174;-72
2023/11/18 10:44:59;;;;;;;32.17;11.17;;;3.10;99.90;;;;;;4952575;29;20296;-72
2023/11/18 10:47:35;;;;;;;31.47;11.33;;;3.10;99.90;;;;;;4952934;28;20179;-73
2023/11/18 10:50:01;;;;;;;33.97;10.97;;;3.10;99.90;;;;;;4953154;29;20225;-72
2023/11/18 10:52:34;;;;;;;34.33;10.23;;;3.10;99.90;;;;;;4952108;28;20730;-73
2023/11/18 10:55:07;;;;;;;34.13;10.73;;;3.10;99.90;;;;;;4952677;29;20753;-73
2023/11/18 10:57:35;;;;;;;36.37;13.13;;;3.10;99.90;;;;;;4955619;28;20178;-73
2023/11/18 11:00:14;;;;;;;38.90;11.60;;;3.10;99.90;;;;;;4964127;28;20260;-73
2023/11/18 11:02:41;;;;;;;29.27;10.67;;;3.20;99.90;;;;;;4944601;29;20182;-72
2023/11/18 11:05:17;;;;;;;32.80;10.60;;;3.20;99.90;;;;;;4952574;29;20202;-73
2023/11/18 11:07:43;;;;;;;28.53;10.43;;;3.20;99.90;;;;;;4952724;29;20209;-72
2023/11/18 11:10:10;;;;;;;30.00;10.80;;;3.20;99.90;;;;;;4952980;29;20273;-72
2023/11/18 11:12:53;;;;;;;29.30;10.93;;;3.20;99.90;;;;;;4951436;28;20198;-73
2023/11/18 11:15:23;;;;;;;36.93;12.40;;;3.30;99.90;;;;;;4952371;29;20245;-73
2023/11/18 11:17:55;;;;;;;37.17;12.20;;;3.30;99.90;;;;;;4952482;29;20237;-72
2023/11/18 11:20:29;;;;;;;35.53;11.87;;;3.30;99.90;;;;;;4952132;29;20182;-72
2023/11/18 11:23:21;;;;;;;33.93;11.70;;;3.30;99.90;;;;;;4959691;28;20544;-72
2023/11/18 11:26:09;;;;;;;38.00;11.80;;;3.40;99.90;;;;;;4952348;28;20178;-73
2023/11/18 11:28:43;;;;;;;34.87;12.23;;;3.40;99.90;;;;;;4952107;29;20657;-73
2023/11/18 11:31:16;;;;;;;33.27;11.57;;;3.40;99.90;;;;;;4952167;28;20177;-71
2023/11/18 11:34:24;;;;;;;32.90;11.93;;;3.50;99.90;;;;;;4943977;28;20214;-72
2023/11/18 11:36:52;;;;;;;40.67;11.20;;;3.50;99.90;;;;;;4925053;28;20190;-73
2023/11/18 11:39:25;;;;;;;42.60;11.33;;;3.50;99.90;;;;;;4952085;28;20198;-73
2023/11/18 11:41:52;;;;;;;36.70;12.13;;;3.50;99.90;;;;;;4934647;29;20248;-72
2023/11/18 11:44:19;;;;;;;28.77;10.57;;;3.50;99.90;;;;;;4951021;29;20202;-73
2023/11/18 11:46:55;;;;;;;31.03;10.97;;;3.50;99.90;;;;;;4951958;29;20214;-70
2023/11/18 11:49:27;;;;;;;34.53;12.03;;;3.50;99.90;;;;;;4951896;28;20190;-71
2023/11/18 11:52:20;;;;;;;32.53;11.70;;;3.50;99.90;;;;;;4936805;29;20298;-70
2023/11/18 11:54:56;;;;;;;33.03;10.53;;;3.50;99.90;;;;;;4944682;29;20221;-71
2023/11/18 11:57:22;;;;;;;38.20;12.60;;;3.50;99.90;;;;;;4951811;28;20216;-71
2023/11/18 11:59:52;;;;;;;36.90;12.70;;;3.60;99.90;;;;;;4951858;29;20270;-70
2023/11/18 12:02:24;;;;;;;33.13;11.30;;;3.50;99.90;;;;;;4950269;28;20650;-71
2023/11/18 12:04:54;;;;;;;33.30;12.30;;;3.60;99.90;;;;;;4951653;29;20198;-70
2023/11/18 12:07:27;;;;;;;30.67;12.53;;;3.60;99.90;;;;;;4951597;28;20650;-71
2023/11/18 12:10:00;;;;;;;36.60;12.67;;;3.60;99.90;;;;;;4951723;28;20206;-70
2023/11/18 12:12:27;;;;;;;36.87;12.53;;;3.60;99.90;;;;;;4933683;29;20226;-70
2023/11/18 12:15:05;;;;;;;30.30;11.87;;;3.60;99.90;;;;;;4951466;28;20696;-70
2023/11/18 12:17:31;;;;;;;30.80;12.60;;;3.60;99.90;;;;;;4951543;29;20193;-70
2023/11/18 12:20:06;;;;;;;34.03;13.03;;;3.70;99.90;;;;;;4951634;29;20683;-70
2023/11/18 12:23:13;;;;;;;29.93;11.87;;;3.80;99.90;;;;;;4950815;29;20185;-70
2023/11/18 12:25:39;;;;;;;37.27;12.50;;;3.70;99.90;;;;;;4951556;29;20265;-73
2023/11/18 12:28:09;;;;;;;36.20;12.20;;;3.80;99.90;;;;;;4951545;29;20376;-73
2023/11/18 12:30:37;;;;;;;35.23;10.67;;;3.80;99.90;;;;;;4951397;29;20205;-72
2023/11/18 12:33:11;;;;;;;33.13;11.90;;;3.70;99.90;;;;;;4950678;28;20225;-72
2023/11/18 12:35:54;;;;;;;29.43;11.63;;;3.80;99.90;;;;;;4951411;29;20206;-70
2023/11/18 12:39:05;;;;;;;40.97;12.77;;;3.80;99.90;;;;;;4949461;29;20201;-71
2023/11/18 12:41:39;;;;;;;34.53;12.03;;;3.80;99.90;;;;;;4921614;28;20585;-72
2023/11/18 12:44:24;;;;;;;37.10;13.00;;;3.80;99.90;;;;;;4950382;29;20212;-72
2023/11/18 12:47:14;;;;;;;34.70;12.67;;;3.80;99.90;;;;;;4943947;29;20182;-73
2023/11/18 12:49:41;;;;;;;35.67;12.93;;;3.80;99.90;;;;;;4942757;29;20242;-73
2023/11/18 12:52:14;;;;;;;40.87;14.10;;;3.80;99.90;;;;;;4951566;28;20234;-71
2023/11/18 12:54:43;;;;;;;32.90;11.87;;;3.90;99.90;;;;;;4942856;29;20207;-71
2023/11/18 12:57:13;;;;;;;39.00;13.80;;;3.90;99.90;;;;;;4951398;29;20210;-71
2023/11/18 12:59:40;;;;;;;40.13;12.83;;;3.90;99.90;;;;;;4943717;29;20182;-70
2023/11/18 13:02:18;;;;;;;30.43;12.07;;;4.00;99.90;;;;;;4951157;29;20182;-70
2023/11/18 13:04:47;;;;;;;34.57;11.53;;;3.90;99.90;;;;;;4951118;28;20257;-70
2023/11/18 13:07:17;;;;;;;31.30;12.20;;;4.00;99.90;;;;;;4953812;28;20620;-70
2023/11/18 13:09:45;;;;;;;36.43;13.73;;;4.00;99.90;;;;;;4954716;28;20190;-72
2023/11/18 13:12:14;;;;;;;38.65;12.90;;;4.10;99.90;;;;;;4954531;29;20341;-71
2023/11/18 13:14:42;;;;;;;36.00;13.17;;;4.00;99.90;;;;;;4946137;29;20665;-70
2023/11/18 13:17:13;;;;;;;34.60;12.10;;;4.00;99.90;;;;;;4954552;29;20622;-71
2023/11/18 13:19:40;;;;;;;37.93;13.20;;;4.10;99.90;;;;;;4954310;29;20635;-72
2023/11/18 13:22:08;;;;;;;37.60;12.63;;;4.10;99.90;;;;;;4954453;29;20669;-70
2023/11/18 13:24:46;;;;;;;38.97;13.13;;;4.10;99.90;;;;;;4953458;29;20206;-71
2023/11/18 13:27:16;;;;;;;35.27;13.23;;;4.10;99.90;;;;;;4954271;28;20179;-71
2023/11/18 13:29:51;;;;;;;36.37;13.70;;;4.20;99.90;;;;;;4954092;29;20261;-71
2023/11/18 13:32:17;;;;;;;33.47;12.83;;;4.10;99.90;;;;;;4954029;29;20692;-71
2023/11/18 13:34:43;;;;;;;29.83;12.07;;;4.20;99.90;;;;;;4953995;28;20622;-70
2023/11/18 13:37:12;;;;;;;31.90;12.23;;;4.20;99.90;;;;;;4954407;29;20714;-70
2023/11/18 13:39:38;;;;;;;33.07;13.40;;;4.20;99.90;;;;;;4954418;28;20233;-70
2023/11/18 13:42:25;;;;;;;22.63;8.70;;;4.30;99.90;;;;;;4954187;29;20666;-71
2023/11/18 13:44:52;;;;;;;19.97;9.00;;;4.30;99.90;;;;;;4947523;29;20206;-71
2023/11/18 13:47:18;;;;;;;22.00;8.57;;;4.30;99.90;;;;;;4954045;29;20178;-70
2023/11/18 13:49:45;;;;;;;25.40;9.53;;;4.30;99.90;;;;;;4937860;29;20241;-70
2023/11/18 13:52:15;;;;;;;23.00;8.80;;;4.30;99.90;;;;;;4954112;28;20193;-70
2023/11/18 13:54:44;;;;;;;23.00;8.73;;;4.30;99.90;;;;;;4946078;29;20194;-70
2023/11/18 13:57:11;;;;;;;21.60;9.20;;;4.20;99.90;;;;;;4954088;29;20269;-70
2023/11/18 13:59:44;;;;;;;23.47;8.40;;;4.30;99.90;;;;;;4953942;29;20680;-70
2023/11/18 14:02:10;;;;;;;27.23;9.57;;;4.30;99.90;;;;;;4954115;29;20540;-70
2023/11/18 14:04:36;;;;;;;20.53;9.10;;;4.30;99.90;;;;;;4952983;29;20213;-70
2023/11/18 14:07:05;;;;;;;22.67;9.50;;;4.40;99.90;;;;;;4953692;29;20187;-71
2023/11/18 14:09:35;;;;;;;26.10;9.60;;;4.30;99.90;;;;;;4953451;29;20566;-71
2023/11/18 14:12:02;;;;;;;24.13;9.70;;;4.40;99.90;;;;;;4953870;28;20186;-70
2023/11/18 14:14:28;;;;;;;27.53;9.93;;;4.40;99.90;;;;;;4952716;28;20697;-72
2023/11/18 14:16:57;;;;;;;22.10;8.83;;;4.40;99.90;;;;;;4953426;28;20186;-71
2023/11/18 14:19:24;;;;;;;28.53;11.13;;;4.50;99.90;;;;;;4953251;29;20182;-71
2023/11/18 14:21:51;;;;;;;33.27;10.63;;;4.50;99.90;;;;;;4953337;29;20170;-71
2023/11/18 14:24:17;;;;;;;31.00;11.90;;;4.50;99.90;;;;;;4957204;28;20205;-71
2023/11/18 14:26:43;;;;;;;28.43;12.53;;;4.50;99.90;;;;;;4938565;29;20186;-70
2023/11/18 14:29:11;;;;;;;36.10;14.97;;;4.50;99.90;;;;;;4953283;29;20186;-70
2023/11/18 14:31:37;;;;;;;37.97;18.00;;;4.50;99.90;;;;;;4953211;28;20179;-70
2023/11/18 14:34:03;;;;;;;43.90;17.90;;;4.60;99.90;;;;;;4953182;28;20693;-70
2023/11/18 14:36:29;;;;;;;30.53;11.90;;;4.60;99.90;;;;;;4952597;29;20606;-69
2023/11/18 14:38:55;;;;;;;29.47;11.87;;;4.60;99.90;;;;;;4952656;29;20191;-70
2023/11/18 14:41:24;;;;;;;25.70;10.97;;;4.60;99.90;;;;;;4956265;28;20194;-69
2023/11/18 14:43:50;;;;;;;28.83;10.37;;;4.60;99.90;;;;;;4957242;28;20209;-70
2023/11/18 14:46:16;;;;;;;23.60;10.77;;;4.60;99.90;;;;;;4953933;28;20195;-70
2023/11/18 14:48:42;;;;;;;24.93;9.80;;;4.60;99.90;;;;;;4953740;29;20658;-69
2023/11/18 14:51:08;;;;;;;28.27;11.97;;;4.60;99.90;;;;;;4953721;29;20193;-70
2023/11/18 14:53:33;;;;;;;33.13;12.90;;;4.70;99.90;;;;;;4952313;29;20222;-69
2023/11/18 14:56:00;;;;;;;30.17;11.73;;;4.70;99.90;;;;;;4941453;29;20210;-70
2023/11/18 14:58:26;;;;;;;30.80;12.13;;;4.70;99.90;;;;;;4955348;28;20193;-70
2023/11/18 15:00:51;;;;;;;26.53;11.43;;;4.70;99.90;;;;;;4955760;28;20175;-69
2023/11/18 15:03:17;;;;;;;31.87;12.67;;;4.60;99.90;;;;;;4952988;29;20696;-70
2023/11/18 15:05:44;;;;;;;29.77;11.77;;;4.60;99.90;;;;;;4953280;29;20194;-69
2023/11/18 15:08:12;;;;;;;36.67;13.97;;;4.70;99.90;;;;;;4953369;29;20187;-72
2023/11/18 15:10:41;;;;;;;27.63;11.27;;;4.70;99.90;;;;;;4952549;28;20202;-71
2023/11/18 15:13:12;;;;;;;26.03;10.93;;;4.70;99.90;;;;;;4952456;29;20219;-70
2023/11/18 15:15:39;;;;;;;27.37;11.57;;;4.70;99.90;;;;;;4952961;29;20282;-71
2023/11/18 15:18:08;;;;;;;34.17;11.77;;;4.80;99.90;;;;;;4953266;29;20293;-70
2023/11/18 15:20:34;;;;;;;28.13;12.23;;;4.80;99.90;;;;;;4936150;29;20233;-70
2023/11/18 15:23:00;;;;;;;26.87;11.37;;;4.80;99.90;;;;;;4952478;28;20234;-70
2023/11/18 15:25:26;;;;;;;26.30;12.13;;;4.90;99.90;;;;;;4952794;29;20190;-71
2023/11/18 15:27:52;;;;;;;27.87;12.17;;;4.90;99.90;;;;;;4952966;28;20194;-72
2023/11/18 15:30:19;;;;;;;25.53;10.70;;;4.90;99.90;;;;;;4952309;28;20289;-71
2023/11/18 15:32:46;;;;;;;21.83;10.73;;;4.90;99.90;;;;;;4952053;29;20249;-71
2023/11/18 15:35:12;;;;;;;24.80;11.23;;;4.90;99.90;;;;;;4952758;28;20213;-72
2023/11/18 15:37:41;;;;;;;24.20;11.10;;;4.90;99.90;;;;;;4952601;29;20210;-71
2023/11/18 15:40:13;;;;;;;27.17;10.90;;;4.90;99.90;;;;;;4952885;28;20186;-71
2023/11/18 15:42:43;;;;;;;27.00;11.27;;;4.90;99.90;;;;;;4952141;28;20186;-71
2023/11/18 15:45:14;;;;;;;26.60;11.47;;;4.90;99.90;;;;;;4952695;29;20201;-72
2023/11/18 15:47:42;;;;;;;26.17;11.37;;;5.00;99.90;;;;;;4944692;29;20569;-71
2023/11/18 15:50:12;;;;;;;27.43;11.00;;;5.00;99.90;;;;;;4952540;28;20182;-72
2023/11/18 15:52:39;;;;;;;30.70;11.17;;;5.00;99.90;;;;;;4959996;28;20214;-72
2023/11/18 15:55:09;;;;;;;25.50;11.57;;;5.00;99.90;;;;;;4952652;29;20209;-70
2023/11/18 15:57:39;;;;;;;27.00;10.60;;;5.00;99.90;;;;;;4952550;29;20710;-72
2023/11/18 16:00:09;;;;;;;28.93;11.07;;;5.10;99.90;;;;;;4952501;29;20257;-71
2023/11/18 16:02:35;;;;;;;34.23;13.63;;;5.10;99.90;;;;;;4951600;28;20708;-71
2023/11/18 16:05:03;;;;;;;27.60;12.30;;;5.10;99.90;;;;;;4952383;28;20207;-71
2023/11/18 16:07:28;;;;;;;32.50;13.83;;;5.10;99.90;;;;;;4952121;28;20256;-71
2023/11/18 16:09:54;;;;;;;30.87;13.33;;;5.20;99.90;;;;;;4952507;29;20726;-72
2023/11/18 16:12:20;;;;;;;29.00;12.83;;;5.20;99.90;;;;;;4951611;28;20186;-72
2023/11/18 16:14:45;;;;;;;30.53;12.73;;;5.20;99.90;;;;;;4952016;29;20685;-72
2023/11/18 16:17:11;;;;;;;28.80;12.57;;;5.30;99.90;;;;;;4951662;29;20222;-72
2023/11/18 16:19:36;;;;;;;25.37;12.30;;;5.30;99.90;;;;;;4952101;28;20179;-71
2023/11/18 16:22:03;;;;;;;23.70;11.13;;;5.30;99.90;;;;;;4952368;29;20194;-72
2023/11/18 16:24:29;;;;;;;26.17;11.03;;;5.30;99.90;;;;;;4951170;28;20562;-71
2023/11/18 16:26:54;;;;;;;23.90;11.43;;;5.30;99.90;;;;;;4951679;29;20226;-72
2023/11/18 16:29:21;;;;;;;34.00;14.17;;;5.40;99.90;;;;;;4934551;29;20198;-72
2023/11/18 16:31:48;;;;;;;28.87;12.30;;;5.30;99.90;;;;;;4951682;29;20186;-72
2023/11/18 16:34:14;;;;;;;22.77;11.30;;;5.40;99.90;;;;;;4950782;29;20218;-72
2023/11/18 16:36:40;;;;;;;27.03;12.03;;;5.40;99.90;;;;;;4951388;28;20179;-72
2023/11/18 16:39:06;;;;;;;26.23;11.93;;;5.40;99.90;;;;;;4951803;29;20727;-72
2023/11/18 16:41:32;;;;;;;28.20;11.87;;;5.40;99.90;;;;;;4952983;28;20313;-71
2023/11/18 16:43:58;;;;;;;26.00;11.83;;;5.50;99.90;;;;;;4952294;29;20217;-72
2023/11/18 16:46:24;;;;;;;25.20;11.43;;;5.50;99.90;;;;;;4955183;29;20273;-71
2023/11/18 16:48:50;;;;;;;26.97;11.70;;;5.50;99.90;;;;;;4955467;29;20182;-72
2023/11/18 16:51:16;;;;;;;20.20;10.03;;;5.60;99.90;;;;;;4955205;29;20190;-70
2023/11/18 16:53:42;;;;;;;22.37;10.17;;;5.60;99.90;;;;;;4954401;28;20728;-72
2023/11/18 16:56:08;;;;;;;23.60;10.90;;;5.60;99.90;;;;;;4955228;28;20178;-72
2023/11/18 16:58:34;;;;;;;22.50;11.27;;;5.60;99.90;;;;;;4955086;29;20289;-72
2023/11/18 17:01:02;;;;;;;22.20;10.83;;;5.70;99.90;;;;;;4938139;29;20189;-72
2023/11/18 17:03:30;;;;;;;22.13;12.07;;;5.60;99.90;;;;;;4954260;29;20274;-71
2023/11/18 17:05:55;;;;;;;23.90;11.43;;;5.70;99.90;;;;;;4955005;29;20237;-72
2023/11/18 17:08:21;;;;;;;25.83;10.87;;;5.60;99.90;;;;;;4955002;29;20207;-72
2023/11/18 17:10:53;;;;;;;20.57;9.90;;;5.70;99.90;;;;;;4954862;28;20664;-73
2023/11/18 17:13:19;;;;;;;18.40;9.93;;;5.60;99.90;;;;;;4951534;29;20214;-73
2023/11/18 17:15:45;;;;;;;22.53;10.57;;;5.70;99.90;;;;;;4954861;29;20187;-72
2023/11/18 17:18:10;;;;;;;19.67;9.77;;;5.70;99.90;;;;;;4955023;29;20199;-72
2023/11/18 17:20:36;;;;;;;21.70;10.30;;;5.70;99.90;;;;;;4954694;29;20564;-72
2023/11/18 17:23:02;;;;;;;17.33;8.93;;;5.70;99.90;;;;;;4954133;29;20183;-73
2023/11/18 17:25:28;;;;;;;18.40;9.57;;;5.80;99.90;;;;;;4954563;29;20178;-72
2023/11/18 17:27:54;;;;;;;19.33;9.23;;;5.80;99.90;;;;;;4954528;28;20201;-72
2023/11/18 17:30:20;;;;;;;15.53;8.53;;;5.80;99.90;;;;;;4954574;28;20198;-72
2023/11/18 17:32:47;;;;;;;18.50;8.97;;;5.80;99.90;;;;;;4953794;28;20246;-72
2023/11/18 17:35:14;;;;;;;15.67;9.20;;;5.70;99.90;;;;;;4937670;29;20661;-72
2023/11/18 17:37:40;;;;;;;17.67;8.77;;;5.80;99.90;;;;;;4951145;28;20190;-72
2023/11/18 17:40:10;;;;;;;22.30;10.23;;;5.80;99.90;;;;;;4961071;28;20467;-73
2023/11/18 17:42:40;;;;;;;24.73;12.03;;;5.80;99.90;;;;;;4951909;28;20182;-72
2023/11/18 17:45:07;;;;;;;14.77;6.97;;;5.80;99.90;;;;;;4954911;28;20214;-72
2023/11/18 17:47:37;;;;;;;12.17;7.20;;;5.80;99.90;;;;;;4958551;28;20200;-71
2023/11/18 17:50:11;;;;;;;15.63;7.83;;;5.80;99.90;;;;;;4954686;29;20186;-72
2023/11/18 17:52:41;;;;;;;16.33;9.13;;;5.80;99.90;;;;;;4955838;28;20213;-71
2023/11/18 17:55:08;;;;;;;17.10;9.50;;;5.80;99.90;;;;;;4957494;28;20214;-72
2023/11/18 17:57:34;;;;;;;25.47;11.27;;;5.80;99.90;;;;;;4957949;28;20556;-71
2023/11/18 18:00:00;;;;;;;15.63;8.73;;;5.90;99.90;;;;;;4962341;28;20182;-72
2023/11/18 18:02:25;;;;;;;14.67;8.00;;;5.80;99.90;;;;;;4951777;28;20197;-71
2023/11/18 18:04:51;;;;;;;16.17;9.27;;;5.80;99.90;;;;;;4953955;29;20202;-71
2023/11/18 18:07:17;;;;;;;30.60;20.10;;;5.90;99.90;;;;;;4954136;28;20265;-72
2023/11/18 18:09:45;;;;;;;14.47;7.03;;;5.90;99.90;;;;;;4953092;28;20195;-71
2023/11/18 18:12:12;;;;;;;13.73;8.80;;;5.90;99.90;;;;;;4953742;29;20191;-72
2023/11/18 18:14:38;;;;;;;13.33;7.87;;;5.90;99.90;;;;;;4961095;28;20722;-71
2023/11/18 18:17:04;;;;;;;13.83;6.90;;;5.90;99.90;;;;;;4967349;28;20174;-71
2023/11/18 18:19:31;;;;;;;12.33;6.30;;;5.90;99.90;;;;;;4955516;28;20217;-71
2023/11/18 18:21:57;;;;;;;9.60;4.83;;;5.90;99.90;;;;;;4954199;29;20195;-71
2023/11/18 18:24:22;;;;;;;11.90;6.43;;;5.90;99.90;;;;;;4953001;28;20257;-71
2023/11/18 18:26:48;;;;;;;10.90;5.77;;;5.90;99.90;;;;;;4954377;29;20194;-71
2023/11/18 18:29:13;;;;;;;10.70;5.47;;;5.90;99.90;;;;;;4953940;29;20221;-71
2023/11/18 18:31:39;;;;;;;12.03;6.37;;;5.90;99.90;;;;;;4953814;29;20198;-72
2023/11/18 18:34:05;;;;;;;8.13;4.23;;;5.90;99.90;;;;;;4953064;28;20215;-72
2023/11/18 18:36:30;;;;;;;13.20;3.17;;;5.90;99.90;;;;;;4953816;29;20190;-70
2023/11/18 18:38:56;;;;;;;5.50;4.07;;;5.90;99.90;;;;;;4953874;29;20190;-71
2023/11/18 18:41:22;;;;;;;7.70;3.67;;;6.00;99.90;;;;;;4953707;29;20676;-71
2023/11/18 18:43:47;;;;;;;6.07;3.83;;;6.00;99.90;;;;;;4952992;28;20678;-70
2023/11/18 18:46:14;;;;;;;7.80;5.13;;;6.00;99.90;;;;;;4953691;29;20191;-71
2023/11/18 18:48:39;;;;;;;12.00;6.10;;;6.00;99.90;;;;;;4953437;29;20182;-72
2023/11/18 18:51:05;;;;;;;7.13;4.67;;;6.00;99.90;;;;;;4953667;29;20190;-71
2023/11/18 18:53:31;;;;;;;6.13;3.83;;;6.00;99.90;;;;;;4952737;28;20265;-71
2023/11/18 18:55:57;;;;;;;6.03;3.57;;;6.00;99.90;;;;;;4953523;28;20532;-71
2023/11/18 18:58:23;;;;;;;6.13;3.30;;;6.00;99.90;;;;;;4953341;29;20218;-71
2023/11/18 19:00:50;;;;;;;5.20;2.97;;;6.10;99.90;;;;;;4953494;29;20182;-71
2023/11/18 19:03:15;;;;;;;8.10;3.87;;;6.10;99.90;;;;;;4952160;28;20238;-72
2023/11/18 19:05:41;;;;;;;5.13;3.43;;;6.10;99.90;;;;;;4953012;28;20183;-71
2023/11/18 19:08:07;;;;;;;6.40;3.53;;;6.10;99.90;;;;;;4953359;29;20205;-71
2023/11/18 19:10:32;;;;;;;7.43;4.67;;;6.10;99.90;;;;;;4953195;28;20195;-71
2023/11/18 19:13:03;;;;;;;7.80;3.93;;;6.10;99.90;;;;;;4952585;29;20238;-71
2023/11/18 19:15:29;;;;;;;6.13;3.10;;;6.10;99.90;;;;;;4953015;28;20190;-71
2023/11/18 19:17:57;;;;;;;5.20;3.10;;;6.10;99.90;;;;;;4953095;29;20178;-71
2023/11/18 19:20:24;;;;;;;4.47;3.00;;;6.10;99.90;;;;;;4938518;29;20567;-71
2023/11/18 19:22:50;;;;;;;5.77;3.23;;;6.10;99.90;;;;;;4952478;28;20190;-71
2023/11/18 19:25:17;;;;;;;7.67;3.50;;;6.10;99.90;;;;;;4953079;29;20265;-71
2023/11/18 19:27:43;;;;;;;6.60;3.30;;;6.10;99.90;;;;;;4953052;28;20182;-71
2023/11/18 19:30:12;;;;;;;7.37;3.40;;;6.10;99.90;;;;;;4935864;29;20218;-71